createdAt,value
2022-09-01T00:06:56.291Z,6.68
2022-09-01T00:11:59.113Z,6.60
2022-09-01T00:17:04.321Z,5.95
2022-09-01T00:22:08.086Z,6.65
2022-09-01T00:27:10.713Z,6.00
2022-09-01T00:32:13.573Z,6.85
2022-09-01T00:37:16.052Z,6.78
2022-09-01T00:42:18.812Z,6.57
2022-09-01T00:47:21.204Z,6.07
2022-09-01T00:52:34.601Z,6.50
2022-09-01T00:57:37.294Z,6.80
2022-09-01T01:02:41.512Z,6.60
2022-09-01T01:07:48.115Z,6.57
2022-09-01T01:12:52.192Z,6.38
2022-09-01T01:17:54.569Z,6.53
2022-09-01T01:23:09.515Z,6.88
2022-09-01T01:28:19.428Z,6.00
2022-09-01T01:33:25.449Z,6.40
2022-09-01T01:38:28.539Z,7.07
2022-09-01T01:43:31.184Z,7.50
2022-09-01T01:48:35.298Z,7.95
2022-09-01T01:53:38.267Z,7.18
2022-09-01T01:58:41.153Z,7.95
2022-09-01T02:03:43.696Z,7.43
2022-09-01T02:08:46.072Z,7.72
2022-09-01T02:13:50.247Z,8.07
2022-09-01T02:18:54.548Z,7.80
2022-09-01T02:24:02.711Z,7.60
2022-09-01T02:29:09.707Z,7.55
2022-09-01T02:34:14.484Z,7.95
2022-09-01T02:39:20.725Z,8.05
2022-09-01T02:44:23.729Z,7.72
2022-09-01T02:49:29.376Z,7.88
2022-09-01T02:54:34.038Z,7.32
2022-09-01T02:59:41.799Z,6.70
2022-09-01T03:04:46.355Z,7.35
2022-09-01T03:09:48.975Z,6.88
2022-09-01T03:14:51.448Z,7.60
2022-09-01T03:19:55.320Z,7.85
2022-09-01T03:24:58.253Z,7.78
2022-09-01T03:30:00.681Z,7.22
2022-09-01T03:35:03.467Z,7.30
2022-09-01T03:40:09.568Z,7.63
2022-09-01T03:45:16.717Z,7.10
2022-09-01T03:50:26.170Z,7.63
2022-09-01T03:55:31.700Z,8.40
2022-09-01T04:55:19.376Z,7.70
2022-09-01T05:01:14.328Z,7.57
2022-09-01T05:13:57.979Z,8.15
2022-09-01T06:15:42.784Z,6.53
2022-09-01T06:20:48.423Z,7.53
2022-09-01T06:25:52.142Z,6.43
2022-09-01T06:30:58.633Z,6.57
2022-09-01T06:36:04.669Z,6.50
2022-09-01T06:41:14.073Z,6.07
2022-09-01T06:46:18.595Z,6.70
2022-09-01T06:51:23.143Z,5.78
2022-09-01T06:56:31.906Z,6.30
2022-09-01T07:01:40.214Z,6.45
2022-09-01T07:17:31.171Z,5.15
2022-09-01T07:23:02.601Z,6.75
2022-09-01T07:27:57.913Z,6.03
2022-09-01T07:42:31.249Z,6.03
2022-09-01T07:43:53.570Z,5.82
2022-09-01T07:54:19.913Z,5.95
2022-09-01T07:59:23.172Z,5.55
2022-09-01T08:04:27.175Z,5.50
2022-09-01T08:09:38.170Z,5.57
2022-09-01T08:14:47.523Z,5.05
2022-09-01T08:19:50.198Z,5.10
2022-09-01T08:24:53.678Z,5.93
2022-09-01T08:29:56.316Z,5.53
2022-09-01T08:35:01.614Z,5.32
2022-09-01T08:40:05.662Z,5.45
2022-09-01T08:45:31.361Z,5.28
2022-09-01T08:50:35.768Z,6.32
2022-09-01T08:55:44.409Z,5.18
2022-09-01T09:00:57.678Z,5.05
2022-09-01T09:06:07.662Z,5.75
2022-09-01T09:11:32.781Z,5.72
2022-09-01T09:16:51.469Z,5.70
2022-09-01T09:22:01.968Z,5.25
2022-09-01T09:27:04.496Z,5.55
2022-09-01T09:32:39.421Z,5.00
2022-09-01T09:37:40.405Z,6.05
2022-09-01T09:43:04.466Z,4.85
2022-09-01T09:48:26.841Z,5.50
2022-09-01T09:53:33.436Z,5.18
2022-09-01T09:58:42.579Z,4.80
2022-09-01T10:03:50.190Z,4.75
2022-09-01T10:08:52.672Z,5.18
2022-09-01T10:19:01.267Z,4.97
2022-09-01T10:24:25.994Z,4.60
2022-09-01T10:29:47.453Z,4.70
2022-09-01T10:34:50.634Z,4.75
2022-09-01T10:40:20.700Z,4.88
2022-09-01T10:45:34.351Z,4.43
2022-09-01T10:50:37.281Z,5.22
2022-09-01T10:55:45.714Z,4.90
2022-09-01T11:06:33.888Z,4.68
2022-09-01T11:12:08.493Z,4.70
2022-09-01T11:17:21.933Z,4.68
2022-09-01T11:22:35.061Z,4.53
2022-09-01T11:27:49.709Z,4.20
2022-09-01T11:33:03.527Z,4.90
2022-09-01T11:38:08.452Z,4.85
2022-09-01T11:43:17.364Z,5.45
2022-09-01T11:48:21.989Z,4.68
2022-09-01T11:53:25.169Z,4.65
2022-09-01T11:58:31.816Z,5.32
2022-09-01T12:03:34.503Z,4.87
2022-09-01T12:08:53.002Z,4.38
2022-09-01T12:14:08.960Z,4.93
2022-09-01T12:19:29.705Z,4.50
2022-09-01T12:24:38.928Z,5.50
2022-09-01T12:29:42.355Z,3.95
2022-09-01T12:34:48.499Z,5.50
2022-09-01T12:39:58.475Z,4.53
2022-09-01T12:45:11.199Z,4.35
2022-09-01T12:50:16.732Z,4.80
2022-09-01T13:01:17.639Z,4.70
2022-09-01T13:06:20.430Z,4.63
2022-09-01T13:11:22.976Z,4.70
2022-09-01T13:16:28.585Z,4.60
2022-09-01T13:21:36.034Z,3.80
2022-09-01T13:26:41.739Z,4.90
2022-09-01T13:32:16.376Z,4.90
2022-09-01T13:37:08.242Z,4.63
2022-09-01T13:42:11.232Z,4.95
2022-09-01T13:47:30.275Z,4.47
2022-09-01T13:52:33.844Z,4.22
2022-09-01T13:57:37.031Z,4.13
2022-09-01T14:02:43.691Z,4.70
2022-09-01T14:07:46.494Z,5.00
2022-09-01T14:12:51.107Z,4.68
2022-09-01T14:17:57.053Z,4.95
2022-09-01T14:22:59.991Z,5.22
2022-09-01T14:28:02.821Z,5.20
2022-09-01T14:33:05.464Z,5.25
2022-09-01T14:38:09.381Z,4.80
2022-09-01T14:43:15.941Z,4.72
2022-09-01T14:48:21.124Z,4.97
2022-09-01T14:53:24.644Z,4.57
2022-09-01T14:58:31.262Z,4.53
2022-09-01T15:03:35.339Z,5.43
2022-09-01T15:08:37.780Z,5.07
2022-09-01T15:13:41.548Z,5.05
2022-09-01T15:18:44.174Z,5.32
2022-09-01T15:23:46.905Z,4.93
2022-09-01T15:28:50.868Z,5.22
2022-09-01T15:33:57.011Z,4.80
2022-09-01T15:39:00.000Z,4.40
2022-09-01T15:44:09.769Z,5.88
2022-09-01T15:49:12.746Z,5.30
2022-09-01T15:54:18.682Z,5.07
2022-09-01T15:59:22.502Z,5.43
2022-09-01T16:04:27.909Z,5.70
2022-09-01T16:09:30.714Z,6.20
2022-09-01T16:14:33.273Z,5.80
2022-09-01T16:19:55.593Z,5.35
2022-09-01T16:25:02.635Z,6.88
2022-09-01T16:30:11.273Z,5.23
2022-09-01T16:35:16.424Z,5.32
2022-09-01T16:40:58.481Z,4.88
2022-09-01T16:46:15.564Z,5.00
2022-09-01T16:51:24.130Z,4.45
2022-09-01T16:56:34.725Z,4.22
2022-09-01T17:01:58.508Z,3.65
2022-09-01T17:07:18.176Z,2.83
2022-09-01T17:12:38.205Z,2.90
2022-09-01T17:18:05.994Z,4.00
2022-09-01T17:23:28.233Z,4.63
2022-09-01T17:28:46.313Z,4.25
2022-09-01T17:34:40.538Z,5.40
2022-09-01T17:39:58.572Z,5.50
2022-09-01T17:51:12.126Z,5.80
2022-09-01T17:56:33.570Z,5.18
2022-09-01T18:02:06.739Z,5.40
2022-09-01T18:13:04.809Z,5.40
2022-09-01T18:18:26.673Z,6.15
2022-09-01T18:23:32.696Z,6.07
2022-09-01T18:28:47.778Z,5.28
2022-09-01T18:34:33.158Z,5.13
2022-09-01T18:40:11.122Z,4.95
2022-09-01T18:45:52.660Z,5.40
2022-09-01T18:51:14.615Z,5.28
2022-09-01T18:56:45.316Z,6.43
2022-09-01T19:01:57.314Z,6.97
2022-09-01T19:07:30.429Z,7.20
2022-09-01T19:12:48.287Z,5.95
2022-09-01T19:18:21.674Z,5.47
2022-09-01T19:23:42.000Z,7.70
2022-09-01T19:29:33.021Z,7.70
2022-09-01T19:34:46.441Z,5.72
2022-09-01T19:39:54.194Z,4.95
2022-09-01T19:45:24.142Z,4.85
2022-09-01T19:51:06.069Z,4.93
2022-09-01T19:56:24.744Z,3.97
2022-09-01T20:02:10.173Z,4.00
2022-09-01T20:07:45.024Z,4.78
2022-09-01T20:13:15.733Z,5.32
2022-09-01T20:18:56.908Z,5.85
2022-09-01T20:24:09.217Z,5.03
2022-09-01T20:30:05.071Z,4.80
2022-09-01T20:35:15.371Z,5.40
2022-09-01T20:40:42.071Z,5.10
2022-09-01T20:45:46.338Z,5.43
2022-09-01T20:56:51.429Z,6.13
2022-09-01T21:02:11.913Z,5.75
2022-09-01T21:07:30.629Z,4.78
2022-09-01T21:12:45.868Z,6.15
2022-09-01T21:18:25.866Z,5.20
2022-09-01T21:23:36.985Z,5.72
2022-09-01T21:28:39.793Z,5.55
2022-09-01T21:33:43.759Z,5.40
2022-09-01T21:38:46.260Z,5.43
2022-09-01T21:43:49.504Z,5.68
2022-09-01T21:48:52.009Z,5.43
2022-09-01T21:53:54.557Z,5.60
2022-09-01T21:59:03.079Z,5.68
2022-09-01T22:09:21.417Z,5.75
2022-09-01T22:14:26.401Z,6.10
2022-09-01T22:19:29.193Z,6.50
2022-09-01T22:24:32.176Z,6.93
2022-09-01T22:29:34.788Z,6.00
2022-09-01T22:34:37.280Z,5.90
2022-09-01T22:39:39.908Z,7.75
2022-09-01T22:44:42.363Z,6.68
2022-09-01T22:49:44.854Z,5.80
2022-09-01T22:54:47.636Z,6.53
2022-09-01T22:59:50.253Z,7.15
2022-09-01T23:04:53.458Z,7.55
2022-09-01T23:09:55.952Z,8.27
2022-09-01T23:14:59.290Z,7.47
2022-09-01T23:20:02.808Z,7.90
2022-09-01T23:25:05.904Z,7.28
2022-09-01T23:30:12.512Z,6.78
2022-09-01T23:35:16.417Z,7.35
2022-09-01T23:40:19.239Z,6.60
2022-09-01T23:45:22.117Z,6.40
2022-09-01T23:50:24.489Z,7.15
2022-09-01T23:55:27.050Z,7.15
